createdAt,value
2018-02-16T00:01:02.839Z,100622.00
2018-02-16T00:03:31.354Z,100627.41
2018-02-16T00:05:59.865Z,100632.19
2018-02-16T00:08:28.325Z,100636.59
2018-02-16T00:10:56.845Z,100642.08
2018-02-16T00:13:25.302Z,100644.16
2018-02-16T00:15:53.773Z,100650.47
2018-02-16T00:18:22.282Z,100649.09
2018-02-16T00:20:50.791Z,100647.08
2018-02-16T00:23:19.293Z,100652.72
2018-02-16T00:25:47.758Z,100641.05
2018-02-16T00:28:16.267Z,100643.38
2018-02-16T00:30:44.743Z,100657.73
2018-02-16T00:33:13.256Z,100645.34
2018-02-16T00:35:41.757Z,100651.22
2018-02-16T00:38:10.260Z,100646.52
2018-02-16T00:40:38.758Z,100651.13
2018-02-16T00:43:07.239Z,100639.39
2018-02-16T00:45:35.722Z,100648.33
2018-02-16T00:48:04.210Z,100649.27
2018-02-16T00:50:32.709Z,100660.89
2018-02-16T00:53:01.186Z,100648.23
2018-02-16T00:55:30.321Z,100643.05
2018-02-16T00:57:58.838Z,100643.41
2018-02-16T01:00:27.319Z,100648.06
2018-02-16T01:02:55.781Z,100642.30
2018-02-16T01:05:24.290Z,100633.06
2018-02-16T01:07:52.797Z,100651.34
2018-02-16T01:10:21.317Z,100655.62
2018-02-16T01:12:49.785Z,100648.44
2018-02-16T01:15:18.270Z,100654.53
2018-02-16T01:17:46.768Z,100630.27
2018-02-16T01:20:15.283Z,100644.54
2018-02-16T01:22:43.793Z,100647.58
2018-02-16T01:25:12.314Z,100643.05
2018-02-16T01:27:40.793Z,100647.72
2018-02-16T01:30:09.248Z,100646.78
2018-02-16T01:32:37.745Z,100644.17
2018-02-16T01:35:06.213Z,100644.81
2018-02-16T01:37:34.722Z,100640.37
2018-02-16T01:40:03.283Z,100634.88
2018-02-16T01:42:31.822Z,100630.00
2018-02-16T01:45:00.339Z,100631.83
2018-02-16T01:47:28.869Z,100638.89
2018-02-16T01:50:06.085Z,100635.83
2018-02-16T01:52:34.590Z,100617.89
2018-02-16T01:55:03.063Z,100632.34
2018-02-16T01:57:31.570Z,100623.06
2018-02-16T02:00:00.110Z,100629.52
2018-02-16T02:02:28.619Z,100632.17
2018-02-16T02:04:57.119Z,100632.65
2018-02-16T02:07:25.632Z,100620.69
2018-02-16T02:09:54.098Z,100641.48
2018-02-16T02:12:22.616Z,100640.48
2018-02-16T02:14:51.122Z,100654.50
2018-02-16T02:17:19.625Z,100633.44
2018-02-16T02:19:48.138Z,100654.69
2018-02-16T02:22:16.610Z,100658.45
2018-02-16T02:24:45.106Z,100657.13
2018-02-16T02:27:13.613Z,100658.94
2018-02-16T02:29:42.058Z,100658.52
2018-02-16T02:32:10.606Z,100655.73
2018-02-16T02:34:39.088Z,100656.62
2018-02-16T02:37:07.567Z,100659.66
2018-02-16T02:39:36.086Z,100654.22
2018-02-16T02:42:04.563Z,100664.22
2018-02-16T02:44:33.101Z,100659.15
2018-02-16T02:47:01.606Z,100658.67
2018-02-16T02:49:30.075Z,100663.38
2018-02-16T02:51:58.578Z,100656.83
2018-02-16T02:54:27.041Z,100665.26
2018-02-16T02:56:55.553Z,100667.03
2018-02-16T02:59:24.014Z,100668.69
2018-02-16T03:01:52.525Z,100676.88
2018-02-16T03:04:21.034Z,100676.31
2018-02-16T03:06:49.501Z,100681.95
2018-02-16T03:09:18.109Z,100682.62
2018-02-16T03:11:46.623Z,100682.42
2018-02-16T03:14:15.094Z,100683.45
2018-02-16T03:16:43.606Z,100673.50
2018-02-16T03:19:12.089Z,100682.72
2018-02-16T03:21:40.561Z,100697.13
2018-02-16T03:24:09.069Z,100696.13
2018-02-16T03:26:37.556Z,100698.77
2018-02-16T03:29:06.168Z,100708.30
2018-02-16T03:31:34.646Z,100707.78
2018-02-16T03:34:03.117Z,100711.27
2018-02-16T03:36:31.623Z,100714.17
2018-02-16T03:39:00.126Z,100713.16
2018-02-16T03:41:28.630Z,100701.63
2018-02-16T03:43:57.104Z,100708.01
2018-02-16T03:46:25.605Z,100710.69
2018-02-16T03:48:54.075Z,100706.53
2018-02-16T03:51:22.573Z,100712.71
2018-02-16T03:53:51.069Z,100711.77
2018-02-16T03:56:19.582Z,100716.77
2018-02-16T03:58:48.050Z,100716.23
2018-02-16T04:01:16.541Z,100715.22
2018-02-16T04:03:45.129Z,100727.03
2018-02-16T04:06:13.612Z,100724.42
2018-02-16T04:08:42.113Z,100730.91
2018-02-16T04:11:10.613Z,100727.56
2018-02-16T04:13:39.073Z,100730.47
2018-02-16T04:16:07.581Z,100727.67
2018-02-16T04:18:36.050Z,100728.20
2018-02-16T04:21:04.517Z,100731.78
2018-02-16T04:23:33.054Z,100737.27
2018-02-16T04:26:01.515Z,100734.25
2018-02-16T04:28:30.018Z,100735.55
2018-02-16T04:30:58.536Z,100742.17
2018-02-16T04:33:27.011Z,100747.50
2018-02-16T04:35:55.521Z,100748.28
2018-02-16T04:38:23.993Z,100746.46
2018-02-16T04:40:52.469Z,100750.69
2018-02-16T04:43:20.973Z,100749.58
2018-02-16T04:45:49.414Z,100753.58
2018-02-16T04:48:17.873Z,100758.10
2018-02-16T04:50:46.364Z,100760.84
2018-02-16T04:53:14.849Z,100769.20
2018-02-16T04:55:43.357Z,100772.02
2018-02-16T04:58:11.861Z,100767.14
2018-02-16T05:00:40.333Z,100772.81
2018-02-16T05:03:08.800Z,100775.94
2018-02-16T05:05:37.303Z,100782.52
2018-02-16T05:08:05.786Z,100781.48
2018-02-16T05:10:34.282Z,100781.27
2018-02-16T05:13:02.789Z,100788.80
2018-02-16T05:15:31.894Z,100788.36
2018-02-16T05:18:00.355Z,100788.66
2018-02-16T05:20:28.864Z,100794.52
2018-02-16T05:22:57.360Z,100792.20
2018-02-16T05:25:25.862Z,100795.28
2018-02-16T05:27:54.373Z,100805.04
2018-02-16T05:30:22.879Z,100812.18
2018-02-16T05:32:51.356Z,100812.59
2018-02-16T05:35:19.858Z,100815.97
2018-02-16T05:37:48.321Z,100799.53
2018-02-16T05:40:16.822Z,100812.55
2018-02-16T05:42:45.290Z,100821.75
2018-02-16T05:45:13.804Z,100823.97
2018-02-16T05:47:42.283Z,100824.73
2018-02-16T05:50:10.773Z,100827.22
2018-02-16T05:52:39.252Z,100824.18
2018-02-16T05:55:07.775Z,100830.88
2018-02-16T05:57:36.286Z,100838.83
2018-02-16T06:00:04.770Z,100837.98
2018-02-16T06:02:33.279Z,100838.47
2018-02-16T06:05:01.741Z,100824.61
2018-02-16T06:07:30.269Z,100837.42
2018-02-16T06:09:58.790Z,100843.19
2018-02-16T06:12:27.297Z,100832.66
2018-02-16T06:14:55.760Z,100842.88
2018-02-16T06:17:24.237Z,100844.00
2018-02-16T06:19:52.741Z,100834.39
2018-02-16T06:22:21.222Z,100836.81
2018-02-16T06:24:49.753Z,100850.34
2018-02-16T06:27:18.236Z,100835.19
2018-02-16T06:29:46.743Z,100838.47
2018-02-16T06:32:15.218Z,100828.95
2018-02-16T06:34:43.734Z,100828.36
2018-02-16T06:37:12.243Z,100814.02
2018-02-16T06:39:40.769Z,100828.95
2018-02-16T06:42:09.278Z,100833.55
2018-02-16T06:44:37.787Z,100823.34
2018-02-16T06:47:06.246Z,100829.08
2018-02-16T06:49:34.763Z,100838.58
2018-02-16T06:52:03.290Z,100828.98
2018-02-16T06:54:31.769Z,100837.02
2018-02-16T06:57:00.284Z,100836.95
2018-02-16T06:59:28.804Z,100840.98
2018-02-16T07:01:57.310Z,100840.18
2018-02-16T07:04:25.831Z,100845.25
2018-02-16T07:06:54.303Z,100846.44
2018-02-16T07:09:22.787Z,100841.81
2018-02-16T07:11:51.281Z,100839.91
2018-02-16T07:14:19.794Z,100844.88
2018-02-16T07:16:48.295Z,100821.77
2018-02-16T07:19:16.814Z,100818.86
2018-02-16T07:21:45.287Z,100835.48
2018-02-16T07:24:13.793Z,100839.06
2018-02-16T07:26:42.270Z,100837.16
2018-02-16T07:29:10.772Z,100831.17
2018-02-16T07:31:39.278Z,100827.40
2018-02-16T07:34:07.744Z,100849.90
2018-02-16T07:36:36.238Z,100843.58
2018-02-16T07:39:04.756Z,100851.41
2018-02-16T07:41:33.315Z,100850.81
2018-02-16T07:44:01.800Z,100848.83
2018-02-16T07:46:30.305Z,100851.02
2018-02-16T07:48:58.763Z,100852.70
2018-02-16T07:51:27.266Z,100855.52
2018-02-16T07:53:55.734Z,100838.41
2018-02-16T07:56:24.234Z,100861.11
2018-02-16T07:58:52.707Z,100856.95
2018-02-16T08:01:21.217Z,100853.53
2018-02-16T08:03:49.796Z,100861.22
2018-02-16T08:06:18.313Z,100855.31
2018-02-16T08:08:46.813Z,100855.97
2018-02-16T08:11:15.317Z,100851.16
2018-02-16T08:13:43.786Z,100842.72
2018-02-16T08:16:12.286Z,100849.67
2018-02-16T08:18:40.841Z,100817.30
2018-02-16T08:21:09.314Z,100849.05
2018-02-16T08:23:37.784Z,100819.73
2018-02-16T08:26:06.290Z,100839.99
2018-02-16T08:28:34.782Z,100852.44
2018-02-16T08:31:03.271Z,100851.38
2018-02-16T08:33:31.726Z,100841.77
2018-02-16T08:36:00.237Z,100852.27
2018-02-16T08:38:28.718Z,100836.52
2018-02-16T08:40:57.197Z,100821.64
2018-02-16T08:43:25.696Z,100833.98
2018-02-16T08:45:54.172Z,100832.80
2018-02-16T08:48:22.682Z,100843.44
2018-02-16T08:50:51.157Z,100837.03
2018-02-16T08:53:19.698Z,100841.63
2018-02-16T08:55:48.665Z,100844.59
2018-02-16T08:58:17.286Z,100851.00
2018-02-16T09:00:45.780Z,100839.00
2018-02-16T09:03:14.304Z,100834.96
2018-02-16T09:05:42.798Z,100823.09
2018-02-16T09:08:11.309Z,100826.38
2018-02-16T09:10:39.781Z,100826.53
2018-02-16T09:13:08.248Z,100817.08
2018-02-16T09:15:36.813Z,100825.36
2018-02-16T09:18:05.296Z,100827.54
2018-02-16T09:20:33.814Z,100824.39
2018-02-16T09:23:02.335Z,100816.29
2018-02-16T09:25:30.840Z,100813.24
2018-02-16T09:27:59.394Z,100810.92
2018-02-16T09:30:27.873Z,100817.02
2018-02-16T09:32:56.385Z,100824.88
2018-02-16T09:35:24.861Z,100810.36
2018-02-16T09:37:53.425Z,100782.00
2018-02-16T09:40:22.541Z,100809.83
2018-02-16T09:42:51.291Z,100809.11
2018-02-16T09:45:19.780Z,100814.70
2018-02-16T09:47:48.281Z,100807.41
2018-02-16T09:50:16.829Z,100802.09
2018-02-16T09:52:45.302Z,100796.97
2018-02-16T09:55:13.814Z,100796.60
2018-02-16T09:57:42.302Z,100805.34
2018-02-16T10:00:10.769Z,100806.25
2018-02-16T10:02:39.290Z,100801.78
2018-02-16T10:05:07.759Z,100790.01
2018-02-16T10:07:36.233Z,100800.47
2018-02-16T10:10:04.746Z,100788.91
2018-02-16T10:12:33.253Z,100792.69
2018-02-16T10:15:01.732Z,100791.23
2018-02-16T10:17:30.282Z,100786.33
2018-02-16T10:19:58.759Z,100794.94
2018-02-16T10:22:27.277Z,100791.05
2018-02-16T10:24:55.794Z,100784.09
2018-02-16T10:27:24.286Z,100773.36
2018-02-16T10:29:52.820Z,100771.36
2018-02-16T10:32:21.293Z,100775.52
2018-02-16T10:34:49.787Z,100767.23
2018-02-16T10:37:18.295Z,100768.04
2018-02-16T10:39:46.784Z,100760.54
2018-02-16T10:42:15.299Z,100764.71
2018-02-16T10:44:43.794Z,100758.55
2018-02-16T10:47:12.273Z,100730.11
2018-02-16T10:49:40.810Z,100747.19
2018-02-16T10:52:09.322Z,100751.76
2018-02-16T10:54:37.790Z,100743.05
2018-02-16T10:57:06.306Z,100736.77
2018-02-16T10:59:34.801Z,100723.73
2018-02-16T11:02:08.659Z,100747.30
2018-02-16T11:04:42.789Z,100744.91
2018-02-16T11:07:16.786Z,100738.35
2018-02-16T11:09:45.274Z,100743.56
2018-02-16T11:12:13.806Z,100740.20
2018-02-16T11:14:42.310Z,100723.44
2018-02-16T11:17:10.797Z,100735.86
2018-02-16T11:19:39.306Z,100729.06
2018-02-16T11:22:07.778Z,100715.63
2018-02-16T11:24:36.290Z,100725.08
2018-02-16T11:27:04.778Z,100703.38
2018-02-16T11:29:33.306Z,100718.30
2018-02-16T11:32:01.795Z,100697.61
2018-02-16T11:34:30.278Z,100714.00
2018-02-16T11:36:58.758Z,100695.64
2018-02-16T11:39:27.285Z,100696.23
2018-02-16T11:41:55.747Z,100714.16
2018-02-16T11:44:24.254Z,100714.55
2018-02-16T11:46:52.734Z,100719.03
2018-02-16T11:49:21.253Z,100713.86
2018-02-16T11:51:49.797Z,100715.08
2018-02-16T11:54:18.268Z,100703.64
2018-02-16T11:56:46.778Z,100711.98
2018-02-16T11:59:15.361Z,100694.56
2018-02-16T12:01:43.860Z,100720.75
2018-02-16T12:04:12.375Z,100721.08
2018-02-16T12:06:40.893Z,100717.12
2018-02-16T12:09:09.367Z,100706.96
2018-02-16T12:11:37.852Z,100707.14
2018-02-16T12:14:06.378Z,100702.45
2018-02-16T12:16:34.853Z,100695.78
2018-02-16T12:19:03.343Z,100698.14
2018-02-16T12:21:31.868Z,100690.75
2018-02-16T12:24:00.373Z,100685.39
2018-02-16T12:26:28.893Z,100689.72
2018-02-16T12:28:57.361Z,100687.98
2018-02-16T12:31:25.898Z,100691.91
2018-02-16T12:33:54.398Z,100692.48
2018-02-16T12:36:23.169Z,100688.12
2018-02-16T12:38:51.678Z,100690.02
2018-02-16T12:41:20.194Z,100688.84
2018-02-16T12:43:48.670Z,100691.05
2018-02-16T12:46:17.149Z,100652.70
2018-02-16T12:48:45.675Z,100681.77
2018-02-16T12:51:14.150Z,100656.77
2018-02-16T12:53:42.658Z,100676.34
2018-02-16T12:56:11.142Z,100679.95
2018-02-16T12:58:39.649Z,100670.98
2018-02-16T13:01:08.165Z,100665.00
2018-02-16T13:03:36.673Z,100665.64
2018-02-16T13:06:05.189Z,100665.11
2018-02-16T13:08:33.713Z,100651.67
2018-02-16T13:11:02.186Z,100639.05
2018-02-16T13:13:30.699Z,100638.72
2018-02-16T13:15:59.278Z,100655.69
2018-02-16T13:18:27.811Z,100670.81
2018-02-16T13:20:56.288Z,100670.54
2018-02-16T13:23:25.654Z,100667.16
2018-02-16T13:25:54.235Z,100671.81
2018-02-16T13:28:22.729Z,100662.11
2018-02-16T13:30:51.304Z,100655.25
2018-02-16T13:33:19.813Z,100653.72
2018-02-16T13:35:48.283Z,100660.70
2018-02-16T13:38:16.817Z,100663.95
2018-02-16T13:40:45.384Z,100655.03
2018-02-16T13:43:13.859Z,100654.73
2018-02-16T13:45:42.369Z,100649.86
2018-02-16T13:48:10.943Z,100648.90
2018-02-16T13:50:39.469Z,100661.39
2018-02-16T13:53:07.985Z,100658.19
2018-02-16T13:55:36.574Z,100651.23
2018-02-16T13:58:05.091Z,100657.47
2018-02-16T14:00:33.604Z,100659.23
2018-02-16T14:03:02.154Z,100644.15
2018-02-16T14:05:30.674Z,100659.23
2018-02-16T14:07:59.226Z,100654.61
2018-02-16T14:10:27.702Z,100646.27
2018-02-16T14:12:56.231Z,100651.34
2018-02-16T14:15:24.734Z,100646.73
2018-02-16T14:17:53.214Z,100630.56
2018-02-16T14:20:21.730Z,100562.45
2018-02-16T14:22:50.215Z,100653.80
2018-02-16T14:25:18.726Z,100640.49
2018-02-16T14:27:47.209Z,100653.91
2018-02-16T14:30:15.717Z,100649.78
2018-02-16T14:32:44.216Z,100626.21
2018-02-16T14:35:12.737Z,100650.67
2018-02-16T14:37:41.262Z,100644.16
2018-02-16T14:40:09.735Z,100644.70
2018-02-16T14:42:38.206Z,100651.55
2018-02-16T14:45:06.751Z,100646.11
2018-02-16T14:47:35.231Z,100617.45
2018-02-16T14:50:03.787Z,100641.42
2018-02-16T14:52:32.262Z,100642.09
2018-02-16T14:55:00.770Z,100639.06
2018-02-16T14:57:29.310Z,100636.75
2018-02-16T14:59:57.832Z,100638.55
2018-02-16T15:02:26.317Z,100605.30
2018-02-16T15:04:54.838Z,100632.71
2018-02-16T15:07:23.361Z,100627.16
2018-02-16T15:09:51.844Z,100636.66
2018-02-16T15:12:20.318Z,100633.30
2018-02-16T15:14:48.853Z,100613.89
2018-02-16T15:17:17.371Z,100629.80
2018-02-16T15:19:45.930Z,100632.44
2018-02-16T15:22:14.465Z,100644.14
2018-02-16T15:24:42.956Z,100622.08
2018-02-16T15:27:11.785Z,100638.94
2018-02-16T15:29:40.708Z,100626.73
2018-02-16T15:32:09.780Z,100643.20
2018-02-16T15:34:39.916Z,100647.48
2018-02-16T15:37:08.955Z,100648.34
2018-02-16T15:39:40.218Z,100647.55
2018-02-16T15:42:09.222Z,100658.92
2018-02-16T15:44:39.369Z,100659.98
2018-02-16T15:47:08.617Z,100658.13
2018-02-16T15:49:38.271Z,100662.51
2018-02-16T15:52:06.997Z,100660.47
2018-02-16T15:54:35.777Z,100671.52
2018-02-16T15:57:04.601Z,100679.04
2018-02-16T15:59:33.332Z,100678.44
2018-02-16T16:02:01.819Z,100679.19
2018-02-16T16:04:30.381Z,100682.51
2018-02-16T16:06:58.855Z,100681.45
2018-02-16T16:09:27.380Z,100690.94
2018-02-16T16:11:55.848Z,100699.08
2018-02-16T16:14:24.412Z,100700.95
2018-02-16T16:16:52.886Z,100697.47
2018-02-16T16:19:21.404Z,100705.06
2018-02-16T16:21:49.878Z,100698.82
2018-02-16T16:24:18.377Z,100701.61
2018-02-16T16:26:46.874Z,100693.36
2018-02-16T16:29:15.330Z,100698.77
2018-02-16T16:31:44.570Z,100695.69
2018-02-16T16:34:13.037Z,100669.95
2018-02-16T16:36:41.542Z,100689.02
2018-02-16T16:39:10.020Z,100684.01
2018-02-16T16:41:38.546Z,100685.08
2018-02-16T16:44:07.017Z,100690.48
2018-02-16T16:46:35.522Z,100689.52
2018-02-16T16:49:04.062Z,100684.84
2018-02-16T16:51:32.565Z,100681.77
2018-02-16T16:54:01.065Z,100676.61
2018-02-16T16:56:29.534Z,100675.53
2018-02-16T16:58:58.029Z,100680.75
2018-02-16T17:01:26.499Z,100681.61
2018-02-16T17:03:55.018Z,100682.70
2018-02-16T17:06:23.482Z,100688.07
2018-02-16T17:08:52.010Z,100684.58
2018-02-16T17:11:20.536Z,100683.14
2018-02-16T17:13:48.998Z,100688.43
2018-02-16T17:16:17.469Z,100689.70
2018-02-16T17:18:45.962Z,100689.51
2018-02-16T17:21:14.418Z,100693.74
2018-02-16T17:23:42.910Z,100688.72
2018-02-16T17:26:11.380Z,100689.13
2018-02-16T17:28:39.882Z,100687.39
2018-02-16T17:31:08.388Z,100689.52
2018-02-16T17:33:36.866Z,100691.52
2018-02-16T17:36:05.386Z,100688.72
2018-02-16T17:38:33.855Z,100690.38
2018-02-16T17:41:02.334Z,100688.89
2018-02-16T17:43:30.774Z,100697.06
2018-02-16T17:45:59.272Z,100701.63
2018-02-16T17:48:27.734Z,100699.62
2018-02-16T17:50:56.197Z,100683.66
2018-02-16T17:53:24.709Z,100704.23
2018-02-16T17:55:53.170Z,100698.48
2018-02-16T17:58:21.698Z,100704.39
2018-02-16T18:00:50.166Z,100701.67
2018-02-16T18:03:18.633Z,100702.66
2018-02-16T18:05:47.135Z,100703.73
2018-02-16T18:08:15.597Z,100706.05
2018-02-16T18:10:44.097Z,100687.80
2018-02-16T18:13:12.562Z,100708.69
2018-02-16T18:15:41.066Z,100710.20
2018-02-16T18:18:09.518Z,100711.55
2018-02-16T18:20:38.074Z,100711.10
2018-02-16T18:23:06.600Z,100714.00
2018-02-16T18:25:35.075Z,100701.69
2018-02-16T18:28:03.538Z,100717.55
2018-02-16T18:30:32.042Z,100712.12
2018-02-16T18:33:00.537Z,100719.57
2018-02-16T18:35:29.001Z,100722.91
2018-02-16T18:37:58.321Z,100726.54
2018-02-16T18:40:26.802Z,100722.44
2018-02-16T18:42:55.316Z,100725.92
2018-02-16T18:45:23.837Z,100726.07
2018-02-16T18:47:52.305Z,100723.97
2018-02-16T18:50:20.805Z,100721.55
2018-02-16T18:52:49.310Z,100720.28
2018-02-16T18:55:17.790Z,100720.14
2018-02-16T18:57:46.257Z,100715.66
2018-02-16T19:00:14.766Z,100713.55
2018-02-16T19:02:43.229Z,100712.25
2018-02-16T19:05:11.718Z,100710.28
2018-02-16T19:07:40.237Z,100712.67
2018-02-16T19:10:08.702Z,100706.39
2018-02-16T19:12:37.234Z,100705.91
2018-02-16T19:15:05.706Z,100703.59
2018-02-16T19:17:34.165Z,100711.64
2018-02-16T19:20:02.666Z,100714.77
2018-02-16T19:22:31.137Z,100716.16
2018-02-16T19:24:59.655Z,100719.12
2018-02-16T19:27:28.141Z,100719.56
2018-02-16T19:29:56.657Z,100716.62
2018-02-16T19:32:25.117Z,100713.56
2018-02-16T19:34:53.662Z,100712.59
2018-02-16T19:37:22.136Z,100709.09
2018-02-16T19:39:50.637Z,100711.13
2018-02-16T19:42:19.133Z,100707.27
2018-02-16T19:44:47.650Z,100703.50
2018-02-16T19:47:16.117Z,100702.95
2018-02-16T19:49:44.573Z,100710.94
2018-02-16T19:52:13.066Z,100713.66
2018-02-16T19:54:41.515Z,100715.69
2018-02-16T19:57:09.979Z,100711.27
2018-02-16T19:59:38.477Z,100715.81
2018-02-16T20:02:06.941Z,100712.33
2018-02-16T20:04:35.450Z,100714.78
2018-02-16T20:07:03.910Z,100718.37
2018-02-16T20:09:32.421Z,100719.33
2018-02-16T20:12:00.885Z,100729.56
2018-02-16T20:14:29.345Z,100727.36
2018-02-16T20:16:57.856Z,100730.96
2018-02-16T20:19:26.317Z,100735.38
2018-02-16T20:21:54.790Z,100737.93
2018-02-16T20:24:23.254Z,100737.91
2018-02-16T20:26:51.749Z,100724.55
2018-02-16T20:29:20.257Z,100743.46
2018-02-16T20:31:48.739Z,100737.36
2018-02-16T20:34:17.244Z,100748.34
2018-02-16T20:36:45.723Z,100754.55
2018-02-16T20:39:14.229Z,100756.39
2018-02-16T20:41:42.714Z,100755.13
2018-02-16T20:44:11.229Z,100761.31
2018-02-16T20:46:39.778Z,100760.41
2018-02-16T20:49:08.231Z,100761.44
2018-02-16T20:51:36.733Z,100759.75
2018-02-16T20:54:05.258Z,100759.37
2018-02-16T20:56:33.769Z,100764.90
2018-02-16T20:59:02.252Z,100740.59
2018-02-16T21:01:30.753Z,100767.34
2018-02-16T21:03:59.262Z,100762.05
2018-02-16T21:06:27.745Z,100760.30
2018-02-16T21:08:56.225Z,100768.20
2018-02-16T21:11:24.730Z,100759.13
2018-02-16T21:13:53.225Z,100764.05
2018-02-16T21:16:21.728Z,100756.04
2018-02-16T21:18:50.228Z,100759.41
2018-02-16T21:21:18.737Z,100763.87
2018-02-16T21:23:47.206Z,100742.10
2018-02-16T21:26:15.748Z,100738.69
2018-02-16T21:28:44.213Z,100765.07
2018-02-16T21:31:12.714Z,100767.77
2018-02-16T21:33:41.214Z,100767.62
2018-02-16T21:36:09.737Z,100759.67
2018-02-16T21:38:38.237Z,100759.68
2018-02-16T21:41:06.715Z,100767.52
2018-02-16T21:43:35.184Z,100760.75
2018-02-16T21:46:03.693Z,100759.23
2018-02-16T21:48:32.201Z,100760.66
2018-02-16T21:51:00.683Z,100760.13
2018-02-16T21:53:29.234Z,100773.47
2018-02-16T21:55:57.712Z,100772.36
2018-02-16T21:58:26.186Z,100772.80
2018-02-16T22:00:54.695Z,100767.25
2018-02-16T22:03:23.158Z,100784.39
2018-02-16T22:05:51.669Z,100778.11
2018-02-16T22:08:20.126Z,100772.37
2018-02-16T22:10:48.625Z,100772.87
2018-02-16T22:13:17.173Z,100773.64
2018-02-16T22:15:45.649Z,100779.33
2018-02-16T22:18:14.166Z,100772.45
2018-02-16T22:20:42.662Z,100771.37
2018-02-16T22:23:11.154Z,100774.47
2018-02-16T22:25:39.653Z,100775.30
2018-02-16T22:28:08.110Z,100769.42
2018-02-16T22:30:36.581Z,100758.78
2018-02-16T22:33:05.070Z,100780.83
2018-02-16T22:35:33.521Z,100788.97
2018-02-16T22:38:01.982Z,100783.51
2018-02-16T22:40:30.463Z,100773.19
2018-02-16T22:42:58.922Z,100773.29
2018-02-16T22:45:27.420Z,100775.72
2018-02-16T22:47:55.903Z,100775.14
2018-02-16T22:50:24.361Z,100773.03
2018-02-16T22:52:52.907Z,100773.48
2018-02-16T22:55:21.374Z,100771.27
2018-02-16T22:57:49.846Z,100779.83
2018-02-16T23:00:18.393Z,100772.44
2018-02-16T23:02:46.898Z,100772.63
2018-02-16T23:05:15.418Z,100775.38
2018-02-16T23:07:43.937Z,100763.22
2018-02-16T23:10:12.406Z,100778.69
2018-02-16T23:12:40.886Z,100780.68
2018-02-16T23:15:09.388Z,100773.95
2018-02-16T23:17:37.850Z,100780.02
2018-02-16T23:20:06.370Z,100777.80
2018-02-16T23:22:34.832Z,100780.48
2018-02-16T23:25:03.290Z,100778.75
2018-02-16T23:27:31.787Z,100773.66
2018-02-16T23:30:00.337Z,100774.18
2018-02-16T23:32:28.809Z,100778.27
2018-02-16T23:34:57.310Z,100786.82
2018-02-16T23:37:25.891Z,100782.64
2018-02-16T23:39:54.353Z,100790.75
2018-02-16T23:42:22.846Z,100790.89
2018-02-16T23:44:51.338Z,100791.33
2018-02-16T23:47:19.844Z,100798.22
2018-02-16T23:49:48.346Z,100798.80
2018-02-16T23:52:16.810Z,100805.16
2018-02-16T23:54:45.318Z,100812.12
2018-02-16T23:57:13.806Z,100802.27
2018-02-16T23:59:42.307Z,100787.04
